Time;durP1;ratioP1;P1;durP2;ratioP2;P2;SDS_P1;SDS_P2;PMS_P1;PMS_P2;Temp;Humidity;BMP_temperature;BMP_pressure;BME280_temperature;BME280_humidity;BME280_pressure;Samples;Min_cycle;Max_cycle;Signal;HPM_P1;HPM_P2
2022/01/31 00:01:08;;;;;;;0.10;0.10;;;3.10;99.90;;;;;;5080052;28;20585;-72
2022/01/31 00:03:34;;;;;;;0.10;0.10;;;3.10;99.90;;;;;;5079614;28;20417;-72
2022/01/31 00:06:01;;;;;;;0.10;0.10;;;3.10;99.90;;;;;;5079153;28;20539;-71
2022/01/31 00:08:26;;;;;;;0.10;0.10;;;2.50;99.90;;;;;;5075178;28;20035;-72
2022/01/31 00:10:52;;;;;;;0.10;0.10;;;3.10;99.90;;;;;;5079950;28;20021;-73
2022/01/31 00:13:35;;;;;;;0.10;0.10;;;3.00;99.90;;;;;;5081352;28;20016;-73
2022/01/31 00:16:02;;;;;;;0.10;0.10;;;3.00;99.90;;;;;;5060529;28;20028;-73
2022/01/31 00:18:27;;;;;;;1.10;1.10;;;2.90;99.90;;;;;;5076179;28;20055;-71
2022/01/31 00:20:53;;;;;;;0.10;0.10;;;2.80;99.90;;;;;;5080069;28;20054;-73
2022/01/31 00:23:19;;;;;;;0.10;0.10;;;2.80;99.90;;;;;;5079201;28;20458;-72
2022/01/31 00:25:44;;;;;;;0.10;0.10;;;2.90;99.90;;;;;;5080741;28;20024;-72
2022/01/31 00:28:10;;;;;;;0.13;0.13;;;2.80;99.90;;;;;;5077708;28;20029;-72
2022/01/31 00:30:36;;;;;;;0.10;0.10;;;2.80;99.90;;;;;;5078666;28;20024;-73
2022/01/31 00:33:02;;;;;;;0.10;0.10;;;2.80;99.90;;;;;;5080889;28;20020;-72
2022/01/31 00:35:27;;;;;;;0.10;0.10;;;2.80;99.90;;;;;;5076064;28;20033;-73
2022/01/31 00:37:53;;;;;;;0.10;0.10;;;2.80;99.90;;;;;;5079162;28;20044;-72
2022/01/31 00:40:19;;;;;;;0.10;0.10;;;2.80;99.90;;;;;;5080187;28;20513;-73
2022/01/31 00:42:45;;;;;;;0.10;0.10;;;2.80;99.90;;;;;;5060639;28;20027;-72
2022/01/31 00:45:15;;;;;;;0.10;0.10;;;2.70;99.90;;;;;;5078248;28;20032;-72
2022/01/31 00:47:46;;;;;;;0.10;0.10;;;2.70;99.90;;;;;;5075444;28;20106;-72
2022/01/31 00:50:14;;;;;;;0.10;0.10;;;2.80;99.90;;;;;;5074412;28;20020;-73
2022/01/31 00:52:42;;;;;;;1.13;0.98;;;2.80;99.90;;;;;;5056825;28;20025;-73
2022/01/31 00:55:10;;;;;;;7.32;3.50;;;2.90;99.90;;;;;;5075743;28;20029;-72
2022/01/31 00:57:36;;;;;;;0.10;0.10;;;3.00;99.90;;;;;;5059341;28;20512;-73
2022/01/31 01:00:03;;;;;;;0.10;0.10;;;3.00;99.90;;;;;;5078615;28;20060;-71
2022/01/31 01:02:30;;;;;;;0.10;0.10;;;3.00;99.90;;;;;;5076863;28;20025;-71
2022/01/31 01:04:55;;;;;;;0.10;0.10;;;3.00;99.90;;;;;;5077868;28;20070;-72
2022/01/31 01:07:21;;;;;;;0.10;0.10;;;3.00;99.90;;;;;;5061632;28;21122;-72
2022/01/31 01:09:47;;;;;;;0.10;0.10;;;2.90;99.90;;;;;;5059938;28;20028;-73
2022/01/31 01:12:15;;;;;;;0.43;0.43;;;2.90;99.90;;;;;;5079324;28;20103;-72
2022/01/31 01:14:42;;;;;;;0.10;0.10;;;2.90;99.90;;;;;;5076625;28;20038;-72
2022/01/31 01:17:08;;;;;;;0.10;0.10;;;2.90;99.90;;;;;;5078535;28;20021;-72
2022/01/31 01:19:34;;;;;;;0.10;0.10;;;2.90;99.90;;;;;;5088605;22;20105;-70
2022/01/31 01:22:00;;;;;;;0.10;0.10;;;2.90;99.90;;;;;;5048269;28;20045;-70
2022/01/31 01:24:26;;;;;;;0.10;0.10;;;3.00;99.90;;;;;;5048697;28;20150;-70
2022/01/31 01:26:51;;;;;;;0.10;0.10;;;3.00;99.90;;;;;;5049379;28;20322;-70
2022/01/31 01:29:19;;;;;;;0.40;0.40;;;3.10;99.90;;;;;;5049139;28;20510;-70
2022/01/31 01:31:46;;;;;;;0.10;0.10;;;3.00;99.90;;;;;;5049317;28;20029;-70
2022/01/31 01:34:12;;;;;;;0.10;0.10;;;3.00;99.90;;;;;;5049406;28;20021;-70
2022/01/31 01:36:38;;;;;;;0.10;0.10;;;3.10;99.90;;;;;;5049217;28;20497;-70
2022/01/31 01:39:05;;;;;;;0.10;0.10;;;3.10;99.90;;;;;;5051227;28;20022;-70
2022/01/31 01:41:31;;;;;;;0.10;0.10;;;3.10;99.90;;;;;;5055590;28;20499;-69
2022/01/31 01:43:57;;;;;;;0.05;0.05;;;3.10;99.90;;;;;;5057190;28;20021;-71
2022/01/31 01:46:23;;;;;;;0.10;0.10;;;3.10;99.90;;;;;;5052652;28;20021;-69
2022/01/31 01:48:48;;;;;;;0.10;0.10;;;3.20;99.90;;;;;;5057561;28;20025;-70
2022/01/31 01:51:14;;;;;;;0.10;0.10;;;3.20;99.90;;;;;;5057299;28;20052;-69
2022/01/31 01:53:40;;;;;;;0.10;0.10;;;3.20;99.90;;;;;;5054398;28;20500;-69
2022/01/31 01:56:07;;;;;;;0.22;0.22;;;3.20;99.90;;;;;;5060161;28;20037;-69
2022/01/31 01:58:39;;;;;;;1.10;1.10;;;3.30;99.90;;;;;;5062663;28;20439;-69
2022/01/31 02:01:06;;;;;;;0.10;0.10;;;3.30;99.90;;;;;;5045890;28;20846;-69
2022/01/31 02:03:33;;;;;;;0.10;0.10;;;3.30;99.90;;;;;;5052528;28;20029;-69
2022/01/31 02:05:59;;;;;;;0.10;0.10;;;3.30;99.90;;;;;;5052690;28;20045;-70
2022/01/31 02:08:27;;;;;;;0.10;0.10;;;3.30;99.90;;;;;;5051855;28;20025;-69
2022/01/31 02:10:53;;;;;;;0.10;0.10;;;3.30;99.90;;;;;;5052401;28;20045;-69
2022/01/31 02:13:19;;;;;;;0.10;0.10;;;3.30;99.90;;;;;;5043195;28;20095;-70
2022/01/31 02:15:50;;;;;;;0.10;0.10;;;3.30;99.90;;;;;;5052694;28;20037;-70
2022/01/31 02:18:18;;;;;;;0.10;0.10;;;3.30;99.90;;;;;;5052106;28;20109;-70
2022/01/31 02:20:44;;;;;;;0.10;0.10;;;3.30;99.90;;;;;;5052562;28;20029;-70
2022/01/31 02:23:11;;;;;;;0.10;0.10;;;3.40;99.90;;;;;;5051966;28;20060;-70
2022/01/31 02:25:57;;;;;;;0.10;0.10;;;3.30;99.90;;;;;;5052620;28;20025;-70
2022/01/31 02:28:27;;;;;;;0.10;0.10;;;3.40;99.90;;;;;;5051687;28;20113;-70
2022/01/31 02:30:53;;;;;;;0.10;0.10;;;3.40;99.90;;;;;;5052365;28;20029;-69
2022/01/31 02:33:19;;;;;;;0.10;0.10;;;3.40;99.90;;;;;;5052526;28;20029;-70
2022/01/31 02:35:51;;;;;;;0.20;0.20;;;3.40;99.90;;;;;;5052137;28;20064;-69
2022/01/31 02:38:17;;;;;;;0.10;0.10;;;3.40;99.90;;;;;;5051606;28;20109;-70
2022/01/31 02:40:45;;;;;;;0.10;0.10;;;3.40;99.90;;;;;;5051806;28;20455;-70
2022/01/31 02:43:12;;;;;;;1.65;1.48;;;3.30;99.90;;;;;;5052025;28;20021;-69
2022/01/31 02:45:38;;;;;;;0.13;0.13;;;3.30;99.90;;;;;;5051723;28;20052;-70
2022/01/31 02:48:04;;;;;;;0.10;0.10;;;3.20;99.90;;;;;;5051743;28;20055;-70
2022/01/31 02:50:30;;;;;;;0.10;0.10;;;3.20;99.90;;;;;;5051947;28;20025;-70
2022/01/31 02:53:24;;;;;;;0.10;0.10;;;3.20;99.90;;;;;;5051282;28;20029;-70
2022/01/31 02:55:50;;;;;;;0.10;0.10;;;3.20;99.90;;;;;;5057719;28;20083;-70
2022/01/31 02:58:17;;;;;;;0.10;0.10;;;3.20;99.90;;;;;;5051166;28;20097;-69
2022/01/31 03:00:43;;;;;;;0.10;0.10;;;3.20;99.90;;;;;;5051472;28;20056;-69
2022/01/31 03:03:09;;;;;;;0.10;0.10;;;3.20;99.90;;;;;;5050002;28;20092;-69
2022/01/31 03:05:35;;;;;;;0.10;0.10;;;3.20;99.90;;;;;;5051506;28;20025;-69
2022/01/31 03:08:02;;;;;;;0.10;0.10;;;3.20;99.90;;;;;;5045821;28;20087;-69
2022/01/31 03:10:27;;;;;;;0.10;0.10;;;3.30;99.90;;;;;;5032656;28;20121;-69
2022/01/31 03:12:53;;;;;;;0.10;0.10;;;3.30;99.90;;;;;;5051231;28;20108;-69
2022/01/31 03:15:19;;;;;;;0.10;0.10;;;3.30;99.90;;;;;;5051436;28;20021;-69
2022/01/31 03:17:48;;;;;;;0.10;0.10;;;3.30;99.90;;;;;;5051219;28;20029;-69
2022/01/31 03:20:19;;;;;;;0.10;0.10;;;3.30;99.90;;;;;;5051105;28;20032;-69
2022/01/31 03:22:45;;;;;;;0.10;0.10;;;3.40;99.90;;;;;;5051456;28;20025;-69
2022/01/31 03:25:11;;;;;;;0.10;0.10;;;3.40;99.90;;;;;;5051103;28;20094;-69
2022/01/31 03:27:38;;;;;;;0.17;0.17;;;3.40;99.90;;;;;;5051061;28;20036;-70
2022/01/31 03:30:06;;;;;;;0.10;0.10;;;3.40;99.90;;;;;;5050684;28;20028;-69
2022/01/31 03:32:32;;;;;;;0.10;0.10;;;3.40;99.90;;;;;;5051047;28;20025;-69
2022/01/31 03:34:58;;;;;;;1.17;1.17;;;3.40;99.90;;;;;;5033202;28;20047;-69
2022/01/31 03:37:24;;;;;;;0.10;0.10;;;3.40;99.90;;;;;;5050442;28;20045;-69
2022/01/31 03:39:49;;;;;;;0.10;0.10;;;3.40;99.90;;;;;;5050452;28;20100;-69
2022/01/31 03:42:18;;;;;;;0.10;0.10;;;3.40;99.90;;;;;;5051040;28;20071;-70
2022/01/31 03:44:45;;;;;;;0.13;0.13;;;3.40;99.90;;;;;;5050692;28;20079;-70
2022/01/31 03:47:11;;;;;;;0.10;0.10;;;3.50;99.90;;;;;;5050341;28;20032;-70
2022/01/31 03:49:36;;;;;;;0.10;0.10;;;3.50;99.90;;;;;;5049242;28;20024;-70
2022/01/31 03:52:02;;;;;;;0.10;0.10;;;3.60;99.90;;;;;;5046070;28;20474;-70
2022/01/31 03:54:28;;;;;;;0.10;0.10;;;3.60;99.90;;;;;;5045857;28;20035;-70
2022/01/31 03:56:54;;;;;;;0.17;0.17;;;3.50;99.90;;;;;;5030392;28;20026;-70
2022/01/31 03:59:19;;;;;;;0.10;0.10;;;3.50;99.90;;;;;;5030951;28;20026;-70
2022/01/31 04:01:45;;;;;;;0.10;0.10;;;3.50;99.90;;;;;;5034538;28;20017;-70
2022/01/31 04:04:10;;;;;;;0.40;0.40;;;3.50;99.90;;;;;;5048883;28;20040;-70
2022/01/31 04:06:40;;;;;;;0.10;0.10;;;3.50;99.90;;;;;;5050598;28;20349;-70
2022/01/31 04:09:06;;;;;;;0.10;0.10;;;3.50;99.90;;;;;;5050482;28;20535;-70
2022/01/31 04:11:32;;;;;;;0.10;0.10;;;3.50;99.90;;;;;;5050410;28;20037;-70
2022/01/31 04:13:58;;;;;;;0.10;0.10;;;3.50;99.90;;;;;;5050238;28;20036;-70
2022/01/31 04:16:23;;;;;;;0.10;0.10;;;3.50;99.90;;;;;;5050465;28;20470;-70
2022/01/31 04:18:49;;;;;;;0.20;0.20;;;3.50;99.90;;;;;;5050342;28;20025;-71
2022/01/31 04:21:14;;;;;;;0.10;0.10;;;3.50;99.90;;;;;;5050025;28;20080;-70
2022/01/31 04:23:40;;;;;;;0.10;0.10;;;3.60;99.90;;;;;;5049713;28;20171;-70
2022/01/31 04:26:15;;;;;;;9.55;2.55;;;3.60;99.90;;;;;;5050146;28;20027;-70
2022/01/31 04:28:47;;;;;;;0.10;0.10;;;3.60;99.90;;;;;;5049978;28;20028;-70
2022/01/31 04:33:50;;;;;;;0.15;0.15;;;3.70;99.90;;;;;;5050574;28;20067;-70
2022/01/31 04:36:16;;;;;;;0.10;0.10;;;3.70;99.90;;;;;;5050077;28;20031;-70
2022/01/31 04:38:44;;;;;;;0.10;0.10;;;3.70;99.90;;;;;;5049652;28;20025;-69
2022/01/31 04:41:10;;;;;;;0.10;0.10;;;3.80;99.90;;;;;;5050332;28;20094;-69
2022/01/31 04:43:36;;;;;;;0.10;0.10;;;3.90;99.90;;;;;;5049839;28;20029;-70
2022/01/31 04:46:04;;;;;;;1.02;0.95;;;3.80;99.90;;;;;;5032411;28;20406;-69
2022/01/31 04:48:30;;;;;;;0.13;0.13;;;3.90;99.90;;;;;;5049514;28;20049;-69
2022/01/31 04:50:56;;;;;;;0.10;0.10;;;3.90;99.90;;;;;;5049775;28;20083;-69
2022/01/31 04:53:22;;;;;;;0.10;0.10;;;3.90;99.90;;;;;;5051863;28;20025;-69
2022/01/31 04:55:48;;;;;;;0.10;0.10;;;4.00;99.90;;;;;;5058889;28;20024;-68
2022/01/31 04:58:14;;;;;;;0.10;0.10;;;4.00;99.90;;;;;;5057408;28;20036;-68
2022/01/31 05:00:40;;;;;;;0.10;0.10;;;4.00;99.90;;;;;;5051305;28;20021;-69
2022/01/31 05:03:12;;;;;;;6.00;1.95;;;4.00;99.90;;;;;;5043940;28;20056;-68
2022/01/31 05:05:39;;;;;;;0.40;0.40;;;4.00;99.90;;;;;;5034246;28;20032;-69
2022/01/31 05:08:04;;;;;;;3.72;3.45;;;4.00;99.90;;;;;;5041131;28;20041;-70
2022/01/31 05:10:32;;;;;;;0.10;0.10;;;4.00;99.90;;;;;;5049629;28;20475;-69
2022/01/31 05:12:58;;;;;;;0.10;0.10;;;4.00;99.90;;;;;;5049493;28;20208;-70
2022/01/31 05:15:24;;;;;;;0.10;0.10;;;4.00;99.90;;;;;;5049654;28;20473;-70
2022/01/31 05:17:49;;;;;;;0.10;0.10;;;4.00;99.90;;;;;;5049061;28;20028;-70
2022/01/31 05:20:15;;;;;;;0.10;0.10;;;4.10;99.90;;;;;;5049331;28;20424;-69
2022/01/31 05:22:40;;;;;;;0.10;0.10;;;4.30;99.90;;;;;;5051495;28;20125;-70
2022/01/31 05:25:06;;;;;;;0.45;0.45;;;4.30;99.90;;;;;;5053570;28;20108;-70
2022/01/31 05:27:32;;;;;;;0.10;0.10;;;4.40;99.90;;;;;;5052826;28;20029;-70
2022/01/31 05:29:57;;;;;;;0.75;0.75;;;4.50;99.90;;;;;;5053343;28;20036;-70
2022/01/31 05:32:23;;;;;;;0.10;0.10;;;4.50;99.90;;;;;;5053192;28;20025;-69
2022/01/31 05:34:49;;;;;;;0.10;0.10;;;4.50;99.90;;;;;;5053342;28;20025;-69
2022/01/31 05:37:15;;;;;;;0.10;0.10;;;4.50;99.90;;;;;;5052836;28;20053;-70
2022/01/31 05:39:42;;;;;;;0.10;0.10;;;4.40;99.90;;;;;;5053085;28;20135;-70
2022/01/31 05:42:08;;;;;;;0.10;0.10;;;4.40;99.90;;;;;;5054064;28;20086;-69
2022/01/31 05:44:34;;;;;;;0.10;0.10;;;4.40;99.90;;;;;;5046588;28;20112;-69
2022/01/31 05:47:00;;;;;;;0.10;0.10;;;4.40;99.90;;;;;;5046444;28;20040;-69
2022/01/31 05:49:26;;;;;;;0.10;0.10;;;4.40;99.90;;;;;;5068346;28;20016;-70
2022/01/31 05:51:57;;;;;;;0.70;0.70;;;4.40;99.90;;;;;;5073721;28;20055;-69
2022/01/31 05:54:23;;;;;;;0.10;0.10;;;4.40;99.90;;;;;;5055030;28;20021;-70
2022/01/31 05:56:50;;;;;;;0.10;0.10;;;4.50;99.90;;;;;;5048878;28;20036;-70
2022/01/31 05:59:16;;;;;;;0.10;0.10;;;4.50;99.90;;;;;;5033168;28;20017;-70
2022/01/31 06:01:42;;;;;;;0.10;0.10;;;4.50;99.90;;;;;;5048277;28;20036;-70
2022/01/31 06:04:09;;;;;;;0.10;0.10;;;4.50;99.90;;;;;;5053056;28;20132;-70
2022/01/31 06:06:35;;;;;;;0.10;0.10;;;4.60;99.90;;;;;;5034950;28;20022;-70
2022/01/31 06:09:01;;;;;;;0.10;0.10;;;4.60;99.90;;;;;;5052025;28;20059;-70
2022/01/31 06:11:27;;;;;;;0.10;0.10;;;4.60;99.90;;;;;;5052849;28;20037;-70
2022/01/31 06:13:56;;;;;;;0.10;0.10;;;4.60;99.90;;;;;;5052756;28;20025;-70
2022/01/31 06:16:22;;;;;;;0.20;0.20;;;4.60;99.90;;;;;;5052336;28;20021;-69
2022/01/31 06:18:48;;;;;;;0.10;0.10;;;4.60;99.90;;;;;;5052576;28;20444;-70
2022/01/31 06:21:13;;;;;;;3.47;3.17;;;4.60;99.90;;;;;;5052533;28;20504;-70
2022/01/31 06:23:40;;;;;;;0.22;0.22;;;4.60;99.90;;;;;;5052535;28;20104;-70
2022/01/31 06:26:06;;;;;;;0.10;0.10;;;4.50;99.90;;;;;;5052191;28;20116;-70
2022/01/31 06:28:32;;;;;;;0.10;0.10;;;4.50;99.90;;;;;;5052120;28;20652;-70
2022/01/31 06:30:58;;;;;;;0.40;0.40;;;4.40;99.90;;;;;;5057439;28;20102;-70
2022/01/31 06:33:24;;;;;;;0.10;0.10;;;4.40;99.90;;;;;;5059053;28;20021;-70
2022/01/31 06:35:50;;;;;;;0.20;0.20;;;4.30;99.90;;;;;;5060981;28;20502;-70
2022/01/31 06:38:15;;;;;;;0.10;0.10;;;4.30;99.90;;;;;;5061652;28;20612;-70
2022/01/31 06:40:41;;;;;;;0.10;0.10;;;4.30;99.90;;;;;;5057651;28;20511;-70
2022/01/31 06:43:07;;;;;;;0.85;0.85;;;4.20;99.90;;;;;;5064499;28;20025;-71
2022/01/31 06:45:32;;;;;;;0.10;0.10;;;4.10;99.90;;;;;;5061538;28;20041;-69
2022/01/31 06:47:58;;;;;;;0.10;0.10;;;4.00;99.90;;;;;;5054677;28;20032;-70
2022/01/31 06:50:24;;;;;;;0.10;0.10;;;3.90;99.90;;;;;;5069687;28;20549;-74
2022/01/31 06:52:54;;;;;;;0.10;0.10;;;4.00;99.90;;;;;;5052396;28;20120;-75
2022/01/31 06:55:21;;;;;;;0.35;0.35;;;4.00;99.90;;;;;;5052806;28;20017;-75
2022/01/31 06:57:48;;;;;;;0.10;0.10;;;3.90;99.90;;;;;;5051713;28;20032;-73
2022/01/31 07:00:15;;;;;;;0.10;0.10;;;3.90;99.90;;;;;;5037112;28;20207;-71
2022/01/31 07:02:41;;;;;;;0.10;0.10;;;3.80;99.90;;;;;;5030702;28;20395;-71
2022/01/31 07:05:07;;;;;;;0.10;0.10;;;3.80;99.90;;;;;;5069582;28;20028;-71
2022/01/31 07:07:33;;;;;;;0.30;0.30;;;3.80;99.90;;;;;;5060480;28;20498;-70
2022/01/31 07:10:02;;;;;;;0.43;0.43;;;3.80;99.90;;;;;;5057844;28;20057;-70
2022/01/31 07:12:33;;;;;;;0.10;0.10;;;3.80;99.90;;;;;;5056461;28;20038;-69
2022/01/31 07:15:00;;;;;;;0.10;0.10;;;3.80;99.90;;;;;;5054984;28;20029;-70
2022/01/31 07:17:26;;;;;;;0.10;0.10;;;3.80;99.90;;;;;;5054358;28;20021;-69
2022/01/31 07:19:53;;;;;;;0.10;0.10;;;3.80;99.90;;;;;;5054547;22;20036;-79
2022/01/31 07:22:20;;;;;;;57.95;2.63;;;3.90;99.90;;;;;;5088394;28;20398;-80
2022/01/31 07:25:00;;;;;;;0.10;0.10;;;3.90;99.90;;;;;;5079255;28;20477;-79
2022/01/31 07:27:26;;;;;;;0.10;0.10;;;3.90;99.90;;;;;;5093264;28;20034;-80
2022/01/31 07:29:51;;;;;;;0.10;0.10;;;3.90;99.90;;;;;;5089116;28;20020;-78
2022/01/31 07:32:19;;;;;;;0.10;0.10;;;3.90;99.90;;;;;;5094209;28;20048;-81
2022/01/31 07:34:46;;;;;;;0.22;0.22;;;4.00;99.90;;;;;;5091289;28;20078;-78
2022/01/31 07:37:12;;;;;;;0.10;0.10;;;3.90;99.90;;;;;;5084173;28;20104;-80
2022/01/31 07:39:42;;;;;;;0.10;0.10;;;4.00;99.90;;;;;;5085395;28;20016;-79
2022/01/31 07:42:09;;;;;;;0.10;0.10;;;4.00;99.90;;;;;;5088449;28;20111;-79
2022/01/31 07:44:35;;;;;;;0.10;0.10;;;4.00;99.90;;;;;;5068730;28;20051;-78
2022/01/31 07:47:01;;;;;;;0.10;0.10;;;4.00;99.90;;;;;;5089801;28;20056;-78
2022/01/31 07:49:27;;;;;;;0.10;0.10;;;4.00;99.90;;;;;;5086649;28;20050;-77
2022/01/31 07:51:54;;;;;;;0.10;0.10;;;3.70;99.90;;;;;;5092485;28;20024;-78
2022/01/31 07:54:21;;;;;;;0.10;0.10;;;4.00;99.90;;;;;;5073903;28;20032;-80
2022/01/31 07:56:47;;;;;;;0.10;0.10;;;4.00;99.90;;;;;;5087577;28;20020;-79
2022/01/31 07:59:13;;;;;;;0.10;0.10;;;4.10;99.90;;;;;;5085253;28;20570;-81
2022/01/31 08:01:40;;;;;;;0.10;0.10;;;4.10;99.90;;;;;;5093751;28;20051;-79
2022/01/31 08:04:05;;;;;;;0.10;0.10;;;4.00;99.90;;;;;;5091147;28;20035;-78
2022/01/31 08:06:31;;;;;;;0.43;0.43;;;4.40;99.90;;;;;;5089367;28;20020;-79
2022/01/31 08:08:57;;;;;;;0.10;0.10;;;4.10;99.90;;;;;;5070887;28;20027;-79
2022/01/31 08:11:31;;;;;;;0.10;0.10;;;4.10;99.90;;;;;;5089319;28;20031;-79
2022/01/31 08:14:00;;;;;;;0.30;0.30;;;4.10;99.90;;;;;;5075860;28;20066;-78
2022/01/31 08:16:26;;;;;;;0.10;0.10;;;4.10;99.90;;;;;;5087281;28;20016;-79
2022/01/31 08:18:52;;;;;;;0.10;0.10;;;4.10;99.90;;;;;;5089820;28;20177;-80
2022/01/31 08:21:20;;;;;;;0.10;0.10;;;4.10;99.90;;;;;;5089597;28;20024;-80
2022/01/31 08:23:46;;;;;;;0.10;0.10;;;4.20;99.90;;;;;;5090677;28;20035;-79
2022/01/31 08:26:16;;;;;;;0.55;0.47;;;4.20;99.90;;;;;;5093913;28;20032;-79
2022/01/31 08:31:18;;;;;;;0.10;0.10;;;4.30;99.90;;;;;;5091204;28;20055;-80
2022/01/31 08:33:50;;;;;;;0.10;0.10;;;4.30;99.90;;;;;;5087770;28;20353;-80
2022/01/31 08:36:17;;;;;;;0.10;0.10;;;4.40;99.90;;;;;;5089196;28;20569;-79
2022/01/31 08:38:44;;;;;;;0.10;0.10;;;4.40;99.90;;;;;;5096076;28;20027;-81
2022/01/31 08:41:11;;;;;;;0.10;0.10;;;4.50;99.90;;;;;;5090675;28;20106;-79
2022/01/31 08:43:38;;;;;;;0.10;0.10;;;4.60;99.90;;;;;;5092829;28;20090;-78
2022/01/31 08:46:04;;;;;;;0.10;0.10;;;5.30;99.90;;;;;;5092681;28;20107;-79
2022/01/31 08:48:30;;;;;;;0.10;0.10;;;4.60;99.90;;;;;;5092443;28;20039;-79
2022/01/31 08:50:57;;;;;;;0.10;0.10;;;4.70;99.90;;;;;;5075109;28;20481;-79
2022/01/31 08:53:23;;;;;;;0.10;0.10;;;4.70;99.90;;;;;;5097839;28;20020;-79
2022/01/31 08:56:01;;;;;;;0.10;0.10;;;4.80;99.90;;;;;;5102036;28;20031;-80
2022/01/31 08:58:28;;;;;;;0.10;0.10;;;4.70;99.90;;;;;;5087615;28;20020;-79
2022/01/31 09:01:01;;;;;;;0.10;0.10;;;4.80;99.90;;;;;;5089639;28;20023;-80
2022/01/31 09:06:04;;;;;;;0.10;0.10;;;4.90;99.90;;;;;;5088606;28;20333;-79
2022/01/31 09:08:30;;;;;;;0.40;0.40;;;5.00;99.90;;;;;;5089369;28;20036;-80
2022/01/31 09:10:56;;;;;;;0.10;0.10;;;5.00;99.90;;;;;;5088492;28;20028;-80
2022/01/31 09:13:22;;;;;;;0.10;0.10;;;5.00;99.90;;;;;;5087883;28;20021;-81
2022/01/31 09:15:48;;;;;;;0.10;0.10;;;5.10;99.90;;;;;;5092004;28;20401;-79
2022/01/31 09:18:13;;;;;;;0.10;0.10;;;5.20;99.90;;;;;;5092199;28;20035;-79
2022/01/31 09:20:39;;;;;;;0.10;0.10;;;6.60;99.90;;;;;;5088886;28;20040;-79
2022/01/31 09:23:05;;;;;;;0.10;0.10;;;5.40;99.90;;;;;;5094033;28;20498;-78
2022/01/31 09:25:32;;;;;;;0.70;0.70;;;5.40;99.90;;;;;;5088324;28;20050;-79
2022/01/31 09:27:59;;;;;;;0.10;0.10;;;5.50;99.90;;;;;;5090580;28;20025;-79
2022/01/31 09:30:28;;;;;;;0.10;0.10;;;6.10;99.90;;;;;;5087870;28;20053;-78
2022/01/31 09:32:54;;;;;;;0.10;0.10;;;5.80;99.90;;;;;;5085466;28;20023;-80
2022/01/31 09:35:21;;;;;;;0.10;0.10;;;5.90;99.90;;;;;;5096716;28;20059;-80
2022/01/31 09:37:46;;;;;;;0.10;0.10;;;6.00;99.90;;;;;;5093097;28;20029;-79
2022/01/31 09:40:17;;;;;;;0.10;0.10;;;5.90;99.90;;;;;;5083134;28;20103;-80
2022/01/31 09:46:15;;;;;;;0.10;0.10;;;6.00;99.90;;;;;;5087881;28;20511;-79
2022/01/31 09:50:57;;;;;;;0.10;0.10;;;5.00;99.90;;;;;;5085819;28;20047;-77
2022/01/31 09:53:24;;;;;;;0.10;0.10;;;6.20;99.90;;;;;;5089018;28;20027;-80
2022/01/31 09:55:52;;;;;;;0.10;0.10;;;6.00;99.90;;;;;;5083533;28;20116;-79
2022/01/31 09:58:18;;;;;;;0.10;0.10;;;6.00;99.90;;;;;;5088841;28;20045;-79
2022/01/31 10:00:43;;;;;;;0.10;0.10;;;5.80;99.90;;;;;;5093105;28;20029;-80
2022/01/31 10:03:10;;;;;;;0.10;0.10;;;5.80;99.90;;;;;;5091887;28;20682;-80
2022/01/31 10:05:37;;;;;;;0.10;0.10;;;5.90;99.90;;;;;;5084618;28;20055;-79
2022/01/31 10:08:16;;;;;;;0.10;0.10;;;5.80;99.90;;;;;;5089947;28;20059;-78
2022/01/31 10:10:44;;;;;;;0.38;0.38;;;5.80;99.90;;;;;;5093387;28;20104;-81
2022/01/31 10:16:32;;;;;;;0.10;0.10;;;5.90;99.90;;;;;;5092400;28;20500;-79
2022/01/31 10:19:06;;;;;;;0.10;0.10;;;6.70;99.90;;;;;;5092435;28;20504;-79
2022/01/31 10:21:53;;;;;;;0.13;0.13;;;5.90;99.90;;;;;;5076101;28;20062;-80
2022/01/31 10:24:19;;;;;;;0.10;0.10;;;6.60;99.90;;;;;;5092867;28;20150;-81
2022/01/31 10:26:44;;;;;;;0.20;0.20;;;6.00;99.90;;;;;;5098697;28;20084;-79
2022/01/31 10:29:15;;;;;;;0.10;0.10;;;6.00;99.90;;;;;;5081319;28;20051;-82
2022/01/31 10:32:01;;;;;;;0.00;0.00;;;6.10;99.90;;;;;;5087520;28;20171;-81
2022/01/31 10:34:29;;;;;;;0.10;0.10;;;6.10;99.90;;;;;;5096152;28;20020;-82
2022/01/31 10:37:00;;;;;;;0.10;0.10;;;6.10;99.90;;;;;;5095606;28;20081;-82
2022/01/31 10:53:15;;;;;;;0.10;0.10;;;6.20;99.90;;;;;;5095048;28;20297;-80
2022/01/31 10:55:41;;;;;;;0.10;0.10;;;6.20;99.90;;;;;;5092605;28;20019;-79
2022/01/31 10:58:10;;;;;;;0.10;0.10;;;6.30;99.90;;;;;;5078826;28;20560;-80
2022/01/31 11:00:38;;;;;;;0.10;0.10;;;6.30;99.90;;;;;;5083786;28;20047;-80
2022/01/31 11:03:32;;;;;;;0.10;0.10;;;6.30;99.90;;;;;;5089122;28;20025;-80
2022/01/31 11:05:58;;;;;;;;;;;6.30;99.90;;;;;;5092059;28;20509;-81
2022/01/31 11:08:23;;;;;;;0.10;0.10;;;6.20;99.90;;;;;;5089028;28;19904;-81
2022/01/31 11:10:49;;;;;;;0.10;0.10;;;6.20;99.90;;;;;;5084799;28;20027;-82
2022/01/31 11:13:17;;;;;;;0.10;0.10;;;6.20;99.90;;;;;;5100613;28;20499;-81
2022/01/31 11:15:43;;;;;;;0.10;0.10;;;6.30;99.90;;;;;;5092610;28;20057;-81
2022/01/31 11:18:10;;;;;;;0.10;0.10;;;6.30;99.90;;;;;;5090994;28;20012;-79
2022/01/31 11:20:41;;;;;;;0.10;0.10;;;7.20;99.90;;;;;;5092580;28;20028;-79
2022/01/31 11:23:07;;;;;;;0.10;0.10;;;6.40;99.90;;;;;;5090964;28;20032;-79
2022/01/31 11:25:34;;;;;;;0.10;0.10;;;6.50;99.90;;;;;;5091106;28;20560;-76
2022/01/31 11:28:03;;;;;;;0.10;0.10;;;6.50;99.90;;;;;;5100599;28;20028;-76
2022/01/31 11:30:30;;;;;;;0.10;0.10;;;6.40;99.90;;;;;;5095078;28;20024;-75
2022/01/31 11:32:56;;;;;;;1.35;0.90;;;6.40;99.90;;;;;;5096709;28;20624;-75
2022/01/31 11:35:24;;;;;;;0.10;0.10;;;6.20;99.90;;;;;;5099328;28;20085;-76
2022/01/31 11:37:50;;;;;;;0.10;0.10;;;6.20;99.90;;;;;;5098488;28;20024;-79
2022/01/31 11:40:18;;;;;;;0.13;0.13;;;6.10;99.90;;;;;;5092641;28;20127;-78
2022/01/31 11:42:49;;;;;;;0.10;0.10;;;6.00;99.90;;;;;;5094992;28;20020;-78
2022/01/31 11:45:19;;;;;;;0.10;0.10;;;6.00;99.90;;;;;;5093948;28;20564;-77
2022/01/31 11:47:52;;;;;;;0.00;0.00;;;5.90;99.90;;;;;;5097026;28;20080;-78
2022/01/31 11:50:20;;;;;;;0.10;0.10;;;5.80;99.90;;;;;;5093844;28;20495;-77
2022/01/31 11:52:50;;;;;;;0.10;0.10;;;5.80;99.90;;;;;;5092649;28;20085;-77
2022/01/31 11:55:19;;;;;;;0.10;0.10;;;5.80;99.90;;;;;;5093741;28;20019;-78
2022/01/31 11:57:47;;;;;;;0.10;0.10;;;5.80;99.90;;;;;;5092699;28;20039;-72
2022/01/31 12:00:16;;;;;;;0.10;0.10;;;6.40;99.90;;;;;;5088548;28;20024;-79
2022/01/31 12:02:47;;;;;;;0.10;0.10;;;6.00;99.90;;;;;;5089637;28;20058;-79
2022/01/31 12:05:18;;;;;;;0.10;0.10;;;5.80;99.90;;;;;;5088884;28;20377;-79
2022/01/31 12:07:45;;;;;;;0.10;0.10;;;5.70;99.90;;;;;;5093477;28;20023;-80
2022/01/31 12:10:33;;;;;;;0.10;0.10;;;6.60;99.90;;;;;;5088648;28;20446;-80
2022/01/31 12:13:11;;;;;;;0.10;0.10;;;5.60;99.90;;;;;;5089919;28;20029;-80
2022/01/31 12:18:45;;;;;;;0.10;0.10;;;5.40;99.90;;;;;;5086937;28;20103;-79
2022/01/31 12:24:27;;;;;;;0.55;0.55;;;5.50;99.90;;;;;;5090469;28;20508;-78
2022/01/31 12:27:15;;;;;;;0.10;0.10;;;5.50;99.90;;;;;;5090582;28;20341;-79
2022/01/31 12:29:43;;;;;;;0.10;0.10;;;5.50;99.90;;;;;;5085232;28;20317;-77
2022/01/31 12:32:22;;;;;;;0.10;0.10;;;5.60;99.90;;;;;;5089388;28;20324;-78
2022/01/31 12:34:49;;;;;;;0.10;0.10;;;5.50;99.90;;;;;;5087590;28;20028;-79
2022/01/31 12:37:51;;;;;;;0.10;0.10;;;5.60;99.90;;;;;;5086832;28;20020;-78
2022/01/31 12:40:30;;;;;;;0.38;0.38;;;5.60;99.90;;;;;;5034096;28;20029;-79
2022/01/31 12:45:54;;;;;;;0.10;0.10;;;5.50;99.90;;;;;;5091869;28;20068;-78
2022/01/31 12:48:23;;;;;;;0.10;0.10;;;5.60;99.90;;;;;;5071480;28;20480;-80
2022/01/31 12:50:48;;;;;;;0.10;0.10;;;5.50;99.90;;;;;;5091534;28;20032;-77
2022/01/31 12:53:24;;;;;;;0.10;0.10;;;5.40;99.90;;;;;;5089077;28;20023;-77
2022/01/31 12:56:11;;;;;;;0.10;0.10;;;5.50;99.90;;;;;;5088907;28;20020;-78
2022/01/31 12:58:43;;;;;;;0.10;0.10;;;5.40;99.90;;;;;;5086875;28;20069;-79
2022/01/31 13:01:15;;;;;;;0.10;0.10;;;5.40;99.90;;;;;;5087758;28;20027;-78
2022/01/31 13:03:47;;;;;;;0.10;0.10;;;5.40;99.90;;;;;;5088316;28;20023;-79
2022/01/31 13:06:31;;;;;;;0.10;0.10;;;5.40;99.90;;;;;;5089630;28;20093;-75
2022/01/31 13:09:07;;;;;;;0.10;0.10;;;5.40;99.90;;;;;;5074024;28;20386;-78
2022/01/31 13:11:32;;;;;;;0.10;0.10;;;5.40;99.90;;;;;;5088004;28;20469;-77
2022/01/31 13:14:05;;;;;;;0.10;0.10;;;5.40;99.90;;;;;;5084809;28;20054;-79
2022/01/31 13:19:27;;;;;;;0.10;0.10;;;5.40;99.90;;;;;;5078285;28;20035;-78
2022/01/31 13:21:55;;;;;;;0.10;0.10;;;5.40;99.90;;;;;;5084860;22;20107;-72
2022/01/31 13:24:32;;;;;;;0.10;0.10;;;5.30;99.90;;;;;;5066307;28;20032;-71
2022/01/31 13:27:00;;;;;;;0.10;0.10;;;5.20;99.90;;;;;;5062073;28;20029;-69
2022/01/31 13:29:47;;;;;;;0.10;0.10;;;5.20;99.90;;;;;;5067172;28;20045;-70
2022/01/31 13:32:20;;;;;;;0.10;0.10;;;5.10;99.90;;;;;;5064091;28;20035;-72
2022/01/31 13:34:58;;;;;;;0.10;0.10;;;5.10;99.90;;;;;;5059975;28;20078;-71
2022/01/31 13:37:38;;;;;;;0.10;0.10;;;5.20;99.90;;;;;;5060673;28;20048;-71
2022/01/31 13:40:12;;;;;;;0.10;0.10;;;5.20;99.90;;;;;;5062679;28;20108;-72
2022/01/31 13:42:40;;;;;;;0.10;0.10;;;5.30;99.90;;;;;;5058002;28;20028;-71
2022/01/31 13:45:13;;;;;;;0.03;0.03;;;5.40;99.90;;;;;;5068933;28;20028;-71